sensor_id;sensor_type;location;lat;lon;timestamp;pressure;altitude;pressure_sealevel;temperature;humidity
6829;BME280;17930;48.592;8.868;2023-10-08T00:01:40;97693.34;;;10.98;100.00
6829;BME280;17930;48.592;8.868;2023-10-08T00:04:08;97703.09;;;11.08;100.00
6829;BME280;17930;48.592;8.868;2023-10-08T00:06:36;97697.63;;;11.14;100.00
6829;BME280;17930;48.592;8.868;2023-10-08T00:09:04;97690.13;;;11.23;100.00
6829;BME280;17930;48.592;8.868;2023-10-08T00:11:34;97689.66;;;11.35;100.00
6829;BME280;17930;48.592;8.868;2023-10-08T00:14:02;97682.38;;;11.37;100.00
6829;BME280;17930;48.592;8.868;2023-10-08T00:16:32;97683.22;;;11.43;100.00
6829;BME280;17930;48.592;8.868;2023-10-08T00:19:01;97678.59;;;11.55;100.00
6829;BME280;17930;48.592;8.868;2023-10-08T00:21:33;97667.91;;;11.61;100.00
6829;BME280;17930;48.592;8.868;2023-10-08T00:24:02;97666.59;;;11.64;100.00
6829;BME280;17930;48.592;8.868;2023-10-08T00:26:33;97669.25;;;11.69;100.00
6829;BME280;17930;48.592;8.868;2023-10-08T00:29:02;97664.38;;;12.02;100.00
6829;BME280;17930;48.592;8.868;2023-10-08T00:31:32;97655.28;;;12.19;100.00
6829;BME280;17930;48.592;8.868;2023-10-08T00:34:08;97655.84;;;12.46;100.00
6829;BME280;17930;48.592;8.868;2023-10-08T00:36:37;97655.31;;;12.39;100.00
6829;BME280;17930;48.592;8.868;2023-10-08T00:39:04;97648.25;;;12.59;100.00
6829;BME280;17930;48.592;8.868;2023-10-08T00:41:35;97651.38;;;12.56;100.00
6829;BME280;17930;48.592;8.868;2023-10-08T00:44:07;97641.44;;;12.63;100.00
6829;BME280;17930;48.592;8.868;2023-10-08T00:46:34;97633.88;;;12.62;100.00
6829;BME280;17930;48.592;8.868;2023-10-08T00:49:09;97637.25;;;12.52;100.00
6829;BME280;17930;48.592;8.868;2023-10-08T00:51:51;97632.81;;;12.68;100.00
6829;BME280;17930;48.592;8.868;2023-10-08T00:54:48;97629.41;;;12.72;100.00
6829;BME280;17930;48.592;8.868;2023-10-08T00:57:26;97628.63;;;12.81;100.00
6829;BME280;17930;48.592;8.868;2023-10-08T00:59:54;97630.69;;;12.79;100.00
6829;BME280;17930;48.592;8.868;2023-10-08T01:02:21;97626.78;;;12.77;100.00
6829;BME280;17930;48.592;8.868;2023-10-08T01:04:53;97623.63;;;12.75;100.00
6829;BME280;17930;48.592;8.868;2023-10-08T01:07:21;97615.53;;;12.62;100.00
6829;BME280;17930;48.592;8.868;2023-10-08T01:09:49;97618.94;;;12.52;100.00
6829;BME280;17930;48.592;8.868;2023-10-08T01:12:17;97626.25;;;12.45;100.00
6829;BME280;17930;48.592;8.868;2023-10-08T01:14:49;97624.16;;;12.52;100.00
6829;BME280;17930;48.592;8.868;2023-10-08T01:17:19;97624.16;;;12.62;100.00
6829;BME280;17930;48.592;8.868;2023-10-08T01:19:50;97616.56;;;12.80;100.00
6829;BME280;17930;48.592;8.868;2023-10-08T01:22:23;97618.94;;;12.92;100.00
6829;BME280;17930;48.592;8.868;2023-10-08T01:24:54;97616.56;;;12.90;100.00
6829;BME280;17930;48.592;8.868;2023-10-08T01:27:21;97604.00;;;12.97;100.00
6829;BME280;17930;48.592;8.868;2023-10-08T01:29:50;97605.56;;;12.93;100.00
6829;BME280;17930;48.592;8.868;2023-10-08T01:32:17;97611.59;;;12.89;100.00
6829;BME280;17930;48.592;8.868;2023-10-08T01:34:45;97608.97;;;12.79;100.00
6829;BME280;17930;48.592;8.868;2023-10-08T01:37:13;97615.78;;;12.70;100.00
6829;BME280;17930;48.592;8.868;2023-10-08T01:39:44;97612.91;;;12.72;100.00
6829;BME280;17930;48.592;8.868;2023-10-08T01:42:11;97611.09;;;12.77;100.00
6829;BME280;17930;48.592;8.868;2023-10-08T01:44:44;97614.22;;;12.89;100.00
6829;BME280;17930;48.592;8.868;2023-10-08T01:47:16;97605.84;;;12.92;100.00
6829;BME280;17930;48.592;8.868;2023-10-08T01:49:43;97603.75;;;12.79;100.00
6829;BME280;17930;48.592;8.868;2023-10-08T01:52:11;97610.56;;;12.70;100.00
6829;BME280;17930;48.592;8.868;2023-10-08T01:54:44;97603.75;;;12.59;100.00
6829;BME280;17930;48.592;8.868;2023-10-08T01:57:11;97602.69;;;12.65;100.00
6829;BME280;17930;48.592;8.868;2023-10-08T01:59:38;97602.16;;;12.78;100.00
6829;BME280;17930;48.592;8.868;2023-10-08T02:02:05;97600.09;;;12.60;100.00
6829;BME280;17930;48.592;8.868;2023-10-08T02:04:32;97600.63;;;12.57;100.00
6829;BME280;17930;48.592;8.868;2023-10-08T02:07:01;97593.53;;;12.68;100.00
6829;BME280;17930;48.592;8.868;2023-10-08T02:09:30;97594.59;;;12.52;100.00
6829;BME280;17930;48.592;8.868;2023-10-08T02:12:00;97592.25;;;12.50;100.00
6829;BME280;17930;48.592;8.868;2023-10-08T02:14:29;97588.84;;;12.50;100.00
6829;BME280;17930;48.592;8.868;2023-10-08T02:16:57;97590.94;;;12.43;100.00
6829;BME280;17930;48.592;8.868;2023-10-08T02:19:26;97587.03;;;12.30;100.00
6829;BME280;17930;48.592;8.868;2023-10-08T02:21:54;97584.41;;;12.21;100.00
6829;BME280;17930;48.592;8.868;2023-10-08T02:24:21;97586.75;;;12.22;100.00
6829;BME280;17930;48.592;8.868;2023-10-08T02:26:50;97587.00;;;12.26;100.00
6829;BME280;17930;48.592;8.868;2023-10-08T02:29:20;97583.59;;;12.30;100.00
6829;BME280;17930;48.592;8.868;2023-10-08T02:31:47;97587.00;;;12.26;100.00
6829;BME280;17930;48.592;8.868;2023-10-08T02:34:16;97576.28;;;12.22;100.00
6829;BME280;17930;48.592;8.868;2023-10-08T02:36:45;97577.06;;;12.13;100.00
6829;BME280;17930;48.592;8.868;2023-10-08T02:39:13;97582.84;;;12.29;100.00
6829;BME280;17930;48.592;8.868;2023-10-08T02:41:48;97575.50;;;12.22;100.00
6829;BME280;17930;48.592;8.868;2023-10-08T02:44:15;97578.66;;;12.14;100.00
6829;BME280;17930;48.592;8.868;2023-10-08T02:46:44;97584.91;;;12.08;100.00
6829;BME280;17930;48.592;8.868;2023-10-08T02:49:13;97580.72;;;12.22;100.00
6829;BME280;17930;48.592;8.868;2023-10-08T02:51:45;97582.28;;;12.13;100.00
6829;BME280;17930;48.592;8.868;2023-10-08T02:54:11;97587.53;;;12.18;100.00
6829;BME280;17930;48.592;8.868;2023-10-08T02:56:43;97581.25;;;12.19;100.00
6829;BME280;17930;48.592;8.868;2023-10-08T02:59:12;97593.28;;;12.25;100.00
6829;BME280;17930;48.592;8.868;2023-10-08T03:01:39;97588.06;;;12.20;100.00
6829;BME280;17930;48.592;8.868;2023-10-08T03:04:08;97587.00;;;12.06;100.00
6829;BME280;17930;48.592;8.868;2023-10-08T03:06:43;97587.50;;;12.03;100.00
6829;BME280;17930;48.592;8.868;2023-10-08T03:09:11;97587.53;;;12.13;100.00
6829;BME280;17930;48.592;8.868;2023-10-08T03:11:39;97586.47;;;12.19;100.00
6829;BME280;17930;48.592;8.868;2023-10-08T03:14:12;97580.72;;;12.22;100.00
6829;BME280;17930;48.592;8.868;2023-10-08T03:16:49;97584.38;;;12.01;100.00
6829;BME280;17930;48.592;8.868;2023-10-08T03:19:19;97582.06;;;12.29;100.00
6829;BME280;17930;48.592;8.868;2023-10-08T03:21:46;97587.28;;;12.09;100.00
6829;BME280;17930;48.592;8.868;2023-10-08T03:24:21;97588.28;;;11.93;100.00
6829;BME280;17930;48.592;8.868;2023-10-08T03:27:03;97584.91;;;12.03;100.00
6829;BME280;17930;48.592;8.868;2023-10-08T03:29:38;97585.94;;;12.02;100.00
6829;BME280;17930;48.592;8.868;2023-10-08T03:32:08;97583.50;;;11.56;100.00
6829;BME280;17930;48.592;8.868;2023-10-08T03:34:43;97592.44;;;11.19;100.00
6829;BME280;17930;48.592;8.868;2023-10-08T03:37:12;97595.72;;;10.94;100.00
6829;BME280;17930;48.592;8.868;2023-10-08T03:39:46;97597.44;;;10.79;100.00
6829;BME280;17930;48.592;8.868;2023-10-08T03:42:26;97608.28;;;10.61;100.00
6829;BME280;17930;48.592;8.868;2023-10-08T03:45:00;97611.84;;;10.50;100.00
6829;BME280;17930;48.592;8.868;2023-10-08T03:47:37;97608.41;;;10.45;100.00
6829;BME280;17930;48.592;8.868;2023-10-08T03:50:07;97603.94;;;10.35;100.00
6829;BME280;17930;48.592;8.868;2023-10-08T03:52:35;97604.63;;;10.31;100.00
6829;BME280;17930;48.592;8.868;2023-10-08T03:55:04;97603.84;;;10.25;100.00
6829;BME280;17930;48.592;8.868;2023-10-08T03:57:33;97607.47;;;10.24;100.00
6829;BME280;17930;48.592;8.868;2023-10-08T04:00:08;97607.97;;;10.22;100.00
6829;BME280;17930;48.592;8.868;2023-10-08T04:02:43;97613.13;;;10.17;100.00
6829;BME280;17930;48.592;8.868;2023-10-08T04:05:21;97610.75;;;10.10;100.00
6829;BME280;17930;48.592;8.868;2023-10-08T04:07:53;97614.88;;;10.06;100.00
6829;BME280;17930;48.592;8.868;2023-10-08T04:10:40;97609.84;;;10.00;100.00
6829;BME280;17930;48.592;8.868;2023-10-08T04:13:33;97611.28;;;9.91;100.00
6829;BME280;17930;48.592;8.868;2023-10-08T04:16:04;97600.28;;;9.84;100.00
6829;BME280;17930;48.592;8.868;2023-10-08T04:18:31;97603.34;;;9.76;100.00
6829;BME280;17930;48.592;8.868;2023-10-08T04:21:07;97607.63;;;9.66;100.00
6829;BME280;17930;48.592;8.868;2023-10-08T04:23:39;97605.75;;;9.61;100.00
6829;BME280;17930;48.592;8.868;2023-10-08T04:26:06;97619.19;;;9.53;100.00
6829;BME280;17930;48.592;8.868;2023-10-08T04:28:33;97617.66;;;9.52;100.00
6829;BME280;17930;48.592;8.868;2023-10-08T04:31:01;97617.03;;;9.45;100.00
6829;BME280;17930;48.592;8.868;2023-10-08T04:33:41;97614.38;;;9.40;100.00
6829;BME280;17930;48.592;8.868;2023-10-08T04:36:10;97620.13;;;9.42;100.00
6829;BME280;17930;48.592;8.868;2023-10-08T04:38:43;97612.38;;;9.47;100.00
6829;BME280;17930;48.592;8.868;2023-10-08T04:41:13;97620.78;;;9.54;100.00
6829;BME280;17930;48.592;8.868;2023-10-08T04:43:45;97618.91;;;9.71;100.00
6829;BME280;17930;48.592;8.868;2023-10-08T04:46:14;97612.44;;;9.78;100.00
6829;BME280;17930;48.592;8.868;2023-10-08T04:49:00;97614.53;;;9.76;100.00
6829;BME280;17930;48.592;8.868;2023-10-08T04:51:32;97613.97;;;9.74;100.00
6829;BME280;17930;48.592;8.868;2023-10-08T04:54:03;97616.88;;;9.78;100.00
6829;BME280;17930;48.592;8.868;2023-10-08T04:56:30;97611.19;;;9.81;100.00
6829;BME280;17930;48.592;8.868;2023-10-08T04:58:58;97613.53;;;9.82;100.00
6829;BME280;17930;48.592;8.868;2023-10-08T05:01:25;97615.38;;;9.82;100.00
6829;BME280;17930;48.592;8.868;2023-10-08T05:04:04;97619.53;;;9.83;100.00
6829;BME280;17930;48.592;8.868;2023-10-08T05:06:50;97619.06;;;9.86;100.00
6829;BME280;17930;48.592;8.868;2023-10-08T05:09:26;97619.53;;;9.83;100.00
6829;BME280;17930;48.592;8.868;2023-10-08T05:12:06;97623.69;;;9.79;100.00
6829;BME280;17930;48.592;8.868;2023-10-08T05:14:54;97621.56;;;9.76;100.00
6829;BME280;17930;48.592;8.868;2023-10-08T05:17:47;97626.72;;;9.71;100.00
6829;BME280;17930;48.592;8.868;2023-10-08T05:20:23;97625.94;;;9.70;100.00
6829;BME280;17930;48.592;8.868;2023-10-08T05:23:26;97621.00;;;9.74;100.00
6829;BME280;17930;48.592;8.868;2023-10-08T05:26:10;97635.06;;;9.73;100.00
6829;BME280;17930;48.592;8.868;2023-10-08T05:28:46;97633.75;;;9.70;100.00
6829;BME280;17930;48.592;8.868;2023-10-08T05:31:13;97628.78;;;9.69;100.00
6829;BME280;17930;48.592;8.868;2023-10-08T05:34:02;97634.81;;;9.74;100.00
6829;BME280;17930;48.592;8.868;2023-10-08T05:36:40;97631.44;;;9.74;100.00
6829;BME280;17930;48.592;8.868;2023-10-08T05:39:28;97639.72;;;9.71;100.00
6829;BME280;17930;48.592;8.868;2023-10-08T05:41:55;97635.00;;;9.68;100.00
6829;BME280;17930;48.592;8.868;2023-10-08T05:44:39;97641.72;;;9.64;100.00
6829;BME280;17930;48.592;8.868;2023-10-08T05:47:05;97645.91;;;9.65;100.00
6829;BME280;17930;48.592;8.868;2023-10-08T05:49:49;97650.56;;;9.63;100.00
6829;BME280;17930;48.592;8.868;2023-10-08T05:52:37;97651.06;;;9.60;100.00
6829;BME280;17930;48.592;8.868;2023-10-08T05:55:18;97646.66;;;9.61;100.00
6829;BME280;17930;48.592;8.868;2023-10-08T05:57:52;97649.00;;;9.62;100.00
6829;BME280;17930;48.592;8.868;2023-10-08T06:00:28;97654.84;;;9.69;100.00
6829;BME280;17930;48.592;8.868;2023-10-08T06:03:31;97658.56;;;9.78;100.00
6829;BME280;17930;48.592;8.868;2023-10-08T06:06:01;97660.25;;;9.89;100.00
6829;BME280;17930;48.592;8.868;2023-10-08T06:08:45;97664.53;;;9.95;100.00
6829;BME280;17930;48.592;8.868;2023-10-08T06:11:18;97668.25;;;10.04;100.00
6829;BME280;17930;48.592;8.868;2023-10-08T06:14:03;97669.72;;;10.21;100.00
6829;BME280;17930;48.592;8.868;2023-10-08T06:16:40;97669.53;;;10.27;100.00
6829;BME280;17930;48.592;8.868;2023-10-08T06:19:12;97676.38;;;10.33;100.00
6829;BME280;17930;48.592;8.868;2023-10-08T06:21:41;97675.19;;;10.46;100.00
6829;BME280;17930;48.592;8.868;2023-10-08T06:24:07;97678.97;;;10.60;100.00
6829;BME280;17930;48.592;8.868;2023-10-08T06:26:43;97681.41;;;10.71;100.00
6829;BME280;17930;48.592;8.868;2023-10-08T06:29:14;97680.47;;;10.82;100.00
6829;BME280;17930;48.592;8.868;2023-10-08T06:31:54;97679.91;;;11.16;100.00
6829;BME280;17930;48.592;8.868;2023-10-08T06:34:21;97676.09;;;11.38;100.00
6829;BME280;17930;48.592;8.868;2023-10-08T06:36:48;97669.75;;;11.66;100.00
6829;BME280;17930;48.592;8.868;2023-10-08T06:39:20;97667.25;;;11.95;100.00
6829;BME280;17930;48.592;8.868;2023-10-08T06:41:54;97667.53;;;12.09;100.00
6829;BME280;17930;48.592;8.868;2023-10-08T06:44:22;97670.47;;;12.37;100.00
6829;BME280;17930;48.592;8.868;2023-10-08T06:46:49;97677.53;;;12.51;100.00
6829;BME280;17930;48.592;8.868;2023-10-08T06:49:18;97676.00;;;12.75;100.00
6829;BME280;17930;48.592;8.868;2023-10-08T06:51:45;97674.97;;;12.91;100.00
6829;BME280;17930;48.592;8.868;2023-10-08T06:54:13;97677.84;;;13.04;100.00
6829;BME280;17930;48.592;8.868;2023-10-08T06:56:42;97682.84;;;12.86;100.00
6829;BME280;17930;48.592;8.868;2023-10-08T06:59:13;97673.88;;;13.22;100.00
6829;BME280;17930;48.592;8.868;2023-10-08T07:01:42;97671.22;;;13.41;100.00
6829;BME280;17930;48.592;8.868;2023-10-08T07:04:11;97666.69;;;13.67;100.00
6829;BME280;17930;48.592;8.868;2023-10-08T07:06:38;97659.22;;;14.41;100.00
6829;BME280;17930;48.592;8.868;2023-10-08T07:09:06;97654.88;;;14.60;100.00
6829;BME280;17930;48.592;8.868;2023-10-08T07:11:39;97660.03;;;14.75;100.00
6829;BME280;17930;48.592;8.868;2023-10-08T07:14:09;97667.53;;;14.58;100.00
6829;BME280;17930;48.592;8.868;2023-10-08T07:16:40;97664.41;;;14.56;100.00
6829;BME280;17930;48.592;8.868;2023-10-08T07:19:08;97662.56;;;14.85;100.00
6829;BME280;17930;48.592;8.868;2023-10-08T07:21:44;97667.19;;;14.98;100.00
6829;BME280;17930;48.592;8.868;2023-10-08T07:24:11;97660.53;;;15.05;100.00
6829;BME280;17930;48.592;8.868;2023-10-08T07:26:41;97654.56;;;15.00;100.00
6829;BME280;17930;48.592;8.868;2023-10-08T07:29:13;97655.47;;;14.85;100.00
6829;BME280;17930;48.592;8.868;2023-10-08T07:31:44;97657.44;;;14.98;100.00
6829;BME280;17930;48.592;8.868;2023-10-08T07:34:15;97658.09;;;15.14;100.00
6829;BME280;17930;48.592;8.868;2023-10-08T07:36:44;97660.53;;;15.05;100.00
6829;BME280;17930;48.592;8.868;2023-10-08T07:39:12;97645.44;;;15.21;100.00
6829;BME280;17930;48.592;8.868;2023-10-08T07:41:51;97637.75;;;15.94;100.00
6829;BME280;17930;48.592;8.868;2023-10-08T07:44:19;97640.38;;;15.94;100.00
6829;BME280;17930;48.592;8.868;2023-10-08T07:46:48;97640.00;;;16.24;100.00
6829;BME280;17930;48.592;8.868;2023-10-08T07:49:15;97635.28;;;16.57;100.00
6829;BME280;17930;48.592;8.868;2023-10-08T07:51:42;97640.41;;;17.12;100.00
6829;BME280;17930;48.592;8.868;2023-10-08T07:54:17;97642.50;;;17.29;100.00
6829;BME280;17930;48.592;8.868;2023-10-08T07:56:48;97650.34;;;17.34;100.00
6829;BME280;17930;48.592;8.868;2023-10-08T07:59:17;97659.13;;;17.29;100.00
6829;BME280;17930;48.592;8.868;2023-10-08T08:01:44;97664.19;;;17.26;100.00
6829;BME280;17930;48.592;8.868;2023-10-08T08:04:12;97660.47;;;17.27;100.00
6829;BME280;17930;48.592;8.868;2023-10-08T08:06:47;97649.75;;;17.63;100.00
6829;BME280;17930;48.592;8.868;2023-10-08T08:09:16;97663.44;;;17.65;100.00
6829;BME280;17930;48.592;8.868;2023-10-08T08:11:45;97656.38;;;17.34;100.00
6829;BME280;17930;48.592;8.868;2023-10-08T08:14:13;97659.06;;;17.16;100.00
6829;BME280;17930;48.592;8.868;2023-10-08T08:16:43;97658.72;;;17.36;100.00
6829;BME280;17930;48.592;8.868;2023-10-08T08:19:15;97651.53;;;17.54;100.00
6829;BME280;17930;48.592;8.868;2023-10-08T08:21:42;97652.13;;;17.51;100.00
6829;BME280;17930;48.592;8.868;2023-10-08T08:24:11;97655.81;;;17.64;100.00
6829;BME280;17930;48.592;8.868;2023-10-08T08:26:39;97650.44;;;17.82;100.00
6829;BME280;17930;48.592;8.868;2023-10-08T08:29:34;97659.31;;;17.86;100.00
6829;BME280;17930;48.592;8.868;2023-10-08T08:32:09;97667.06;;;17.69;100.00
6829;BME280;17930;48.592;8.868;2023-10-08T08:34:39;97653.16;;;17.91;100.00
6829;BME280;17930;48.592;8.868;2023-10-08T08:37:09;97659.63;;;18.90;100.00
6829;BME280;17930;48.592;8.868;2023-10-08T08:39:37;97649.00;;;20.28;100.00
6829;BME280;17930;48.592;8.868;2023-10-08T08:42:04;97650.09;;;21.40;100.00
6829;BME280;17930;48.592;8.868;2023-10-08T08:44:31;97645.84;;;21.93;100.00
6829;BME280;17930;48.592;8.868;2023-10-08T08:47:00;97641.28;;;22.22;100.00
6829;BME280;17930;48.592;8.868;2023-10-08T08:49:32;97639.81;;;22.85;100.00
6829;BME280;17930;48.592;8.868;2023-10-08T08:52:07;97644.25;;;23.81;100.00
6829;BME280;17930;48.592;8.868;2023-10-08T08:54:34;97642.41;;;24.57;100.00
6829;BME280;17930;48.592;8.868;2023-10-08T08:57:03;97643.56;;;24.98;100.00
6829;BME280;17930;48.592;8.868;2023-10-08T08:59:32;97650.56;;;25.03;97.40
6829;BME280;17930;48.592;8.868;2023-10-08T09:02:02;97659.00;;;24.77;96.91
6829;BME280;17930;48.592;8.868;2023-10-08T09:04:30;97659.84;;;25.36;96.61
6829;BME280;17930;48.592;8.868;2023-10-08T09:06:59;97654.81;;;26.27;92.83
6829;BME280;17930;48.592;8.868;2023-10-08T09:09:33;97652.06;;;27.36;87.50
6829;BME280;17930;48.592;8.868;2023-10-08T09:12:00;97649.78;;;28.31;78.85
6829;BME280;17930;48.592;8.868;2023-10-08T09:14:30;97650.47;;;29.15;73.64
6829;BME280;17930;48.592;8.868;2023-10-08T09:17:00;97646.53;;;29.42;70.52
6829;BME280;17930;48.592;8.868;2023-10-08T09:19:30;97646.63;;;30.53;67.45
6829;BME280;17930;48.592;8.868;2023-10-08T09:22:01;97642.84;;;30.67;64.27
6829;BME280;17930;48.592;8.868;2023-10-08T09:24:31;97647.28;;;30.36;62.52
6829;BME280;17930;48.592;8.868;2023-10-08T09:26:59;97656.47;;;29.78;66.60
6829;BME280;17930;48.592;8.868;2023-10-08T09:29:27;97663.28;;;30.11;64.70
6829;BME280;17930;48.592;8.868;2023-10-08T09:31:55;97657.53;;;30.77;62.15
6829;BME280;17930;48.592;8.868;2023-10-08T09:34:26;97650.56;;;30.69;63.60
6829;BME280;17930;48.592;8.868;2023-10-08T09:36:53;97646.81;;;30.98;61.20
6829;BME280;17930;48.592;8.868;2023-10-08T09:39:22;97647.28;;;31.24;61.54
6829;BME280;17930;48.592;8.868;2023-10-08T09:41:53;97641.94;;;31.93;61.69
6829;BME280;17930;48.592;8.868;2023-10-08T09:44:20;97639.28;;;31.97;60.25
6829;BME280;17930;48.592;8.868;2023-10-08T09:46:52;97657.75;;;32.36;56.65
6829;BME280;17930;48.592;8.868;2023-10-08T09:49:27;97641.19;;;31.48;59.16
6829;BME280;17930;48.592;8.868;2023-10-08T09:52:00;97648.44;;;32.51;59.18
6829;BME280;17930;48.592;8.868;2023-10-08T09:54:29;97641.16;;;33.26;54.73
6829;BME280;17930;48.592;8.868;2023-10-08T09:57:01;97634.72;;;34.51;52.21
6829;BME280;17930;48.592;8.868;2023-10-08T09:59:32;97635.50;;;33.65;52.41
6829;BME280;17930;48.592;8.868;2023-10-08T10:02:00;97646.19;;;31.91;54.32
6829;BME280;17930;48.592;8.868;2023-10-08T10:04:30;97642.34;;;31.71;56.08
6829;BME280;17930;48.592;8.868;2023-10-08T10:06:58;97650.38;;;30.34;57.33
6829;BME280;17930;48.592;8.868;2023-10-08T10:09:26;97658.75;;;29.72;60.29
6829;BME280;17930;48.592;8.868;2023-10-08T10:11:54;97661.59;;;29.14;62.84
6829;BME280;17930;48.592;8.868;2023-10-08T10:14:24;97658.25;;;29.60;65.74
6829;BME280;17930;48.592;8.868;2023-10-08T10:17:13;97659.91;;;29.75;63.01
6829;BME280;17930;48.592;8.868;2023-10-08T10:19:41;97657.38;;;29.49;64.06
6829;BME280;17930;48.592;8.868;2023-10-08T10:22:13;97648.25;;;30.78;62.42
6829;BME280;17930;48.592;8.868;2023-10-08T10:24:42;97648.53;;;31.78;58.96
6829;BME280;17930;48.592;8.868;2023-10-08T10:27:12;97644.44;;;30.82;58.72
6829;BME280;17930;48.592;8.868;2023-10-08T10:29:41;97644.81;;;30.74;59.31
6829;BME280;17930;48.592;8.868;2023-10-08T10:32:11;97651.28;;;29.19;61.25
6829;BME280;17930;48.592;8.868;2023-10-08T10:34:39;97648.63;;;30.02;61.96
6829;BME280;17930;48.592;8.868;2023-10-08T10:37:06;97641.78;;;30.18;60.69
6829;BME280;17930;48.592;8.868;2023-10-08T10:39:35;97636.94;;;31.47;60.73
6829;BME280;17930;48.592;8.868;2023-10-08T10:42:07;97624.47;;;33.35;55.28
6829;BME280;17930;48.592;8.868;2023-10-08T10:44:47;97627.69;;;33.16;52.03
6829;BME280;17930;48.592;8.868;2023-10-08T10:47:16;97622.84;;;33.51;52.55
6829;BME280;17930;48.592;8.868;2023-10-08T10:49:53;97619.47;;;33.84;51.90
6829;BME280;17930;48.592;8.868;2023-10-08T10:52:43;97613.78;;;34.52;49.80
6829;BME280;17930;48.592;8.868;2023-10-08T10:55:18;97612.66;;;35.09;47.57
6829;BME280;17930;48.592;8.868;2023-10-08T10:57:50;97607.94;;;34.83;49.81
6829;BME280;17930;48.592;8.868;2023-10-08T11:00:32;97616.59;;;34.05;47.15
6829;BME280;17930;48.592;8.868;2023-10-08T11:03:22;97601.69;;;33.32;49.31
6829;BME280;17930;48.592;8.868;2023-10-08T11:06:00;97600.25;;;33.68;51.91
6829;BME280;17930;48.592;8.868;2023-10-08T11:08:31;97599.66;;;34.64;47.72
6829;BME280;17930;48.592;8.868;2023-10-08T11:11:01;97590.75;;;35.94;46.98
6829;BME280;17930;48.592;8.868;2023-10-08T11:13:33;97593.53;;;36.14;45.90
6829;BME280;17930;48.592;8.868;2023-10-08T11:16:06;97600.63;;;34.80;43.66
6829;BME280;17930;48.592;8.868;2023-10-08T11:18:35;97601.50;;;33.03;46.01
6829;BME280;17930;48.592;8.868;2023-10-08T11:21:07;97600.56;;;32.41;47.97
6829;BME280;17930;48.592;8.868;2023-10-08T11:23:43;97602.13;;;30.90;49.04
6829;BME280;17930;48.592;8.868;2023-10-08T11:26:12;97600.69;;;31.65;48.02
6829;BME280;17930;48.592;8.868;2023-10-08T11:28:41;97590.41;;;33.37;47.02
6829;BME280;17930;48.592;8.868;2023-10-08T11:31:11;97593.19;;;33.30;46.10
6829;BME280;17930;48.592;8.868;2023-10-08T11:33:40;97590.69;;;33.53;46.58
6829;BME280;17930;48.592;8.868;2023-10-08T11:36:09;97585.50;;;33.22;46.47
6829;BME280;17930;48.592;8.868;2023-10-08T11:38:44;97592.81;;;32.54;47.16
6829;BME280;17930;48.592;8.868;2023-10-08T11:41:14;97595.22;;;32.24;46.53
6829;BME280;17930;48.592;8.868;2023-10-08T11:43:50;97589.88;;;31.65;45.92
6829;BME280;17930;48.592;8.868;2023-10-08T11:46:22;97593.06;;;30.41;46.48
6829;BME280;17930;48.592;8.868;2023-10-08T11:48:51;97582.09;;;30.91;47.14
6829;BME280;17930;48.592;8.868;2023-10-08T11:51:18;97586.78;;;31.84;48.01
6829;BME280;17930;48.592;8.868;2023-10-08T11:53:49;97584.50;;;31.58;46.55
6829;BME280;17930;48.592;8.868;2023-10-08T11:56:17;97574.06;;;31.77;47.08
6829;BME280;17930;48.592;8.868;2023-10-08T11:58:47;97572.25;;;33.85;45.42
6829;BME280;17930;48.592;8.868;2023-10-08T12:01:14;97574.88;;;35.70;43.98
6829;BME280;17930;48.592;8.868;2023-10-08T12:03:44;97568.31;;;34.89;46.59
6829;BME280;17930;48.592;8.868;2023-10-08T12:06:12;97575.91;;;34.41;47.70
6829;BME280;17930;48.592;8.868;2023-10-08T12:08:44;97573.38;;;35.17;44.73
6829;BME280;17930;48.592;8.868;2023-10-08T12:11:14;97564.34;;;35.95;42.77
6829;BME280;17930;48.592;8.868;2023-10-08T12:13:45;97564.66;;;35.28;44.74
6829;BME280;17930;48.592;8.868;2023-10-08T12:16:13;97560.66;;;34.84;46.38
6829;BME280;17930;48.592;8.868;2023-10-08T12:18:45;97563.13;;;35.28;46.18
6829;BME280;17930;48.592;8.868;2023-10-08T12:21:19;97556.00;;;35.37;45.16
6829;BME280;17930;48.592;8.868;2023-10-08T12:23:46;97556.56;;;34.99;44.50
6829;BME280;17930;48.592;8.868;2023-10-08T12:26:15;97550.22;;;35.09;42.80
6829;BME280;17930;48.592;8.868;2023-10-08T12:28:45;97555.63;;;35.61;41.80
6829;BME280;17930;48.592;8.868;2023-10-08T12:31:14;97551.94;;;35.71;41.57
6829;BME280;17930;48.592;8.868;2023-10-08T12:33:42;97547.69;;;35.93;41.72
6829;BME280;17930;48.592;8.868;2023-10-08T12:36:11;97551.06;;;36.20;40.96
6829;BME280;17930;48.592;8.868;2023-10-08T12:38:39;97541.63;;;36.05;42.44
6829;BME280;17930;48.592;8.868;2023-10-08T12:41:08;97542.16;;;36.93;40.84
6829;BME280;17930;48.592;8.868;2023-10-08T12:43:39;97538.31;;;36.90;40.10
6829;BME280;17930;48.592;8.868;2023-10-08T12:46:08;97542.13;;;36.00;40.77
6829;BME280;17930;48.592;8.868;2023-10-08T12:48:41;97549.94;;;36.56;41.51
6829;BME280;17930;48.592;8.868;2023-10-08T12:51:09;97541.75;;;37.26;39.95
6829;BME280;17930;48.592;8.868;2023-10-08T12:53:38;97535.88;;;37.28;38.86
6829;BME280;17930;48.592;8.868;2023-10-08T12:56:05;97527.56;;;37.66;39.75
6829;BME280;17930;48.592;8.868;2023-10-08T12:58:33;97539.28;;;36.45;39.67
6829;BME280;17930;48.592;8.868;2023-10-08T13:01:07;97533.63;;;35.52;39.21
6829;BME280;17930;48.592;8.868;2023-10-08T13:03:35;97530.69;;;36.28;40.58
6829;BME280;17930;48.592;8.868;2023-10-08T13:06:08;97534.94;;;37.18;39.66
6829;BME280;17930;48.592;8.868;2023-10-08T13:08:41;97532.22;;;37.34;38.95
6829;BME280;17930;48.592;8.868;2023-10-08T13:11:08;97533.13;;;37.12;37.42
6829;BME280;17930;48.592;8.868;2023-10-08T13:13:36;97520.88;;;37.04;38.72
6829;BME280;17930;48.592;8.868;2023-10-08T13:16:03;97526.16;;;37.11;38.14
6829;BME280;17930;48.592;8.868;2023-10-08T13:18:33;97524.13;;;37.62;40.29
6829;BME280;17930;48.592;8.868;2023-10-08T13:21:03;97519.38;;;37.19;37.11
6829;BME280;17930;48.592;8.868;2023-10-08T13:23:29;97508.78;;;36.89;38.67
6829;BME280;17930;48.592;8.868;2023-10-08T13:26:00;97523.19;;;36.70;38.64
6829;BME280;17930;48.592;8.868;2023-10-08T13:28:30;97510.22;;;36.78;37.50